PWSweather.com
Personal Weather Stations
Station Observations
LUKAS
Viterbo, MartaIT 01010

ViterboMartaIT 01010

Lat: 42.5370989, Lon: 11.9204865

Elevation: 896

Station Type: La Crosse WS 2305

http://www.meteomarta.altervista.org/

Latest ConditionsUpdated 3:10:05 AM GMT+01:01 Tuesday, Mar 28, 2017
Currently Today's Max Today's Min Today's Average
Temperature 47.1°F8.4°C 47.1°F8.4°C 46.6°F8.1°C 46.9°F8.3°C
Dew Point 32.2°F0.1°C 34.2°F1.2°C 31.3°F-0.4°C 32.6°F0.3°C
Winds 6.0 mph NE9.7 kmh NE 13.0 mph 20.9 kmh - 8.2 mph 13.2 kmh
Wind Gusts 6.0 mph9.7 kmh 16.0 mph25.7 kmh - -
Humidity 56% 62% 54% 58%
Pressure 30.12 in1020.0 mb 30.14 in1020.7 mb 30.12 in1020.0 mb -
Hour Temp Dew Point Humidity Winds Wind Gusts Pressure Precip Precip Rate Daily Precip Total
03:10 AM 47.1°F8.4°C 32.2°F0.1°C 56% 6.0 mph NE9.7 kmh NE 6.0 mph9.7 kmh 30.12 in1020.0 mb - 0.00 in0.0 mm 0.00 in0.0 mm
03:00 AM 47.1°F8.4°C 31.3°F-0.4°C 54% 7.0 mph NE11.3 kmh NE 9.0 mph14.5 kmh 30.12 in1020.0 mb - 0.00 in0.0 mm 0.00 in0.0 mm
02:50 AM 46.9°F8.3°C 32.5°F0.3°C 57% 7.0 mph N11.3 kmh N 10.0 mph16.1 kmh 30.12 in1020.0 mb - 0.00 in0.0 mm 0.00 in0.0 mm
02:40 AM 46.9°F8.3°C 31.6°F-0.2°C 55% 2.0 mph NNE3.2 kmh NNE 12.0 mph19.3 kmh 30.13 in1020.3 mb - 0.00 in0.0 mm 0.00 in0.0 mm
02:30 AM 46.8°F8.2°C 32.4°F0.2°C 57% 7.0 mph NNE11.3 kmh NNE 10.0 mph16.1 kmh 30.13 in1020.3 mb - 0.00 in0.0 mm 0.00 in0.0 mm
02:20 AM 46.6°F8.1°C 32.1°F0.1°C 57% 9.0 mph N14.5 kmh N 12.0 mph19.3 kmh 30.13 in1020.3 mb - 0.00 in0.0 mm 0.00 in0.0 mm
02:10 AM 46.6°F8.1°C 31.7°F-0.2°C 56% 7.0 mph N11.3 kmh N 13.0 mph20.9 kmh 30.13 in1020.3 mb - 0.00 in0.0 mm 0.00 in0.0 mm
02:00 AM 46.8°F8.2°C 32.3°F0.2°C 57% 7.0 mph N11.3 kmh N 12.0 mph19.3 kmh 30.14 in1020.7 mb - 0.00 in0.0 mm 0.00 in0.0 mm
01:50 AM 46.9°F8.3°C 32.5°F0.3°C 57% 12.0 mph N19.3 kmh N 14.0 mph22.5 kmh 30.13 in1020.3 mb - 0.00 in0.0 mm 0.00 in0.0 mm
01:40 AM 46.9°F8.3°C 32.0°F0.0°C 56% 8.0 mph 12.9 kmh 8.0 mph12.9 kmh 30.13 in1020.3 mb - 0.00 in0.0 mm 0.00 in0.0 mm
01:30 AM 46.9°F8.3°C 32.5°F0.3°C 57% 9.0 mph N14.5 kmh N 13.0 mph20.9 kmh 30.13 in1020.3 mb - 0.00 in0.0 mm 0.00 in0.0 mm
01:20 AM 47.1°F8.4°C 33.1°F0.6°C 58% 13.0 mph N20.9 kmh N 15.0 mph24.1 kmh 30.13 in1020.3 mb - 0.00 in0.0 mm 0.00 in0.0 mm
01:10 AM 47.1°F8.4°C 32.7°F0.4°C 57% 5.0 mph NE8.0 kmh NE 10.0 mph16.1 kmh 30.13 in1020.3 mb - 0.00 in0.0 mm 0.00 in0.0 mm
01:00 AM 46.9°F8.3°C 32.5°F0.3°C 57% 7.0 mph NE11.3 kmh NE 10.0 mph16.1 kmh 30.13 in1020.3 mb - 0.00 in0.0 mm 0.00 in0.0 mm
12:50 AM 46.9°F8.3°C 33.3°F0.7°C 59% 7.0 mph N11.3 kmh N 9.0 mph14.5 kmh 30.14 in1020.7 mb - 0.00 in0.0 mm 0.00 in0.0 mm
12:40 AM 46.9°F8.3°C 32.9°F0.5°C 58% 9.0 mph N14.5 kmh N 14.0 mph22.5 kmh 30.14 in1020.7 mb - 0.00 in0.0 mm 0.00 in0.0 mm
12:30 AM 46.8°F8.2°C 33.6°F0.9°C 60% 8.0 mph NE12.9 kmh NE 8.0 mph12.9 kmh 30.13 in1020.3 mb - 0.00 in0.0 mm 0.00 in0.0 mm
12:20 AM 46.6°F8.1°C 33.0°F0.6°C 59% 13.0 mph 20.9 kmh 16.0 mph25.7 kmh 30.14 in1020.7 mb - 0.00 in0.0 mm 0.00 in0.0 mm
12:10 AM 46.6°F8.1°C 33.8°F1.0°C 61% 12.0 mph N19.3 kmh N 14.0 mph22.5 kmh 30.14 in1020.7 mb - 0.00 in0.0 mm 0.00 in0.0 mm
12:00 AM 46.6°F8.1°C 34.2°F1.2°C 62% 9.0 mph N14.5 kmh N 14.0 mph22.5 kmh 30.13 in1020.3 mb - 0.00 in0.0 mm 0.00 in0.0 mm